Brownsville, Ohio
Current Conditions -  °F | °C
As of 6:54 PM on Sunday 21 Dec 2014 (Local Time) from KVTA Reporting Station
Clear Clear  
Wind Chill: 29°   Ceiling: Unl
Heat Index: 29°   Visibility: 9mi
Dew Point: 22°   Wind: 3mph
Humidity: 75%   Direction: 50°NE
Pressure: 30.2"   Gusts: NA
Location:  39.94°N, 82.25°W
Report Text: KVTA 212354Z AUTO 05003KT 9SM CLR M02/M06 A3020 RMK AO2 SLP237 T10171056 10028 21017 58002
Loading
Personal Weather Stations






























Interactive Weather Map New forecast layout! Learn more

10-Day Weather Forecast

Advertisements
Track Severe Weather on mobile